createdAt,value
2018-01-23T00:01:10.285Z,7.10
2018-01-23T00:03:37.913Z,7.10
2018-01-23T00:06:05.460Z,7.10
2018-01-23T00:08:33.029Z,7.10
2018-01-23T00:11:00.597Z,7.00
2018-01-23T00:13:29.065Z,6.90
2018-01-23T00:15:56.653Z,6.90
2018-01-23T00:18:24.269Z,6.80
2018-01-23T00:20:51.856Z,6.80
2018-01-23T00:23:19.458Z,6.80
2018-01-23T00:25:47.777Z,6.80
2018-01-23T00:28:15.354Z,6.80
2018-01-23T00:30:42.981Z,6.90
2018-01-23T00:33:10.549Z,7.00
2018-01-23T00:35:38.314Z,7.00
2018-01-23T00:38:05.864Z,7.00
2018-01-23T00:40:33.413Z,7.00
2018-01-23T00:43:00.977Z,7.00
2018-01-23T00:45:29.321Z,6.90
2018-01-23T00:47:56.859Z,6.90
2018-01-23T00:50:25.249Z,6.90
2018-01-23T00:52:52.797Z,6.90
2018-01-23T00:55:20.346Z,6.90
2018-01-23T00:57:47.906Z,7.00
2018-01-23T01:00:15.453Z,7.00
2018-01-23T01:02:43.017Z,7.00
2018-01-23T01:05:10.609Z,7.00
2018-01-23T01:07:38.174Z,7.00
2018-01-23T01:10:05.745Z,7.00
2018-01-23T01:12:33.316Z,7.00
2018-01-23T01:15:00.889Z,7.10
2018-01-23T01:17:29.225Z,7.10
2018-01-23T01:19:56.779Z,7.10
2018-01-23T01:22:24.332Z,7.20
2018-01-23T01:24:51.886Z,7.30
2018-01-23T01:27:19.452Z,7.20
2018-01-23T01:29:47.026Z,7.30
2018-01-23T01:32:14.573Z,7.30
2018-01-23T01:34:42.174Z,7.30
2018-01-23T01:37:09.754Z,7.20
2018-01-23T01:39:37.309Z,7.20
2018-01-23T01:42:04.873Z,7.20
2018-01-23T01:44:32.593Z,7.20
2018-01-23T01:47:00.146Z,7.20
2018-01-23T01:49:27.729Z,7.20
2018-01-23T01:51:55.281Z,7.10
2018-01-23T01:54:22.843Z,7.10
2018-01-23T01:56:50.425Z,7.00
2018-01-23T01:59:17.971Z,7.00
2018-01-23T02:01:45.556Z,7.00
2018-01-23T02:04:13.110Z,7.00
2018-01-23T02:06:40.661Z,6.90
2018-01-23T02:09:08.201Z,6.90
2018-01-23T02:11:35.764Z,6.80
2018-01-23T02:14:03.329Z,6.80
2018-01-23T02:16:30.885Z,6.80
2018-01-23T02:18:58.457Z,6.90
2018-01-23T02:21:26.013Z,6.90
2018-01-23T02:23:53.580Z,6.90
2018-01-23T02:26:21.332Z,6.80
2018-01-23T02:28:48.884Z,6.70
2018-01-23T02:31:17.214Z,6.80
2018-01-23T02:33:44.781Z,6.80
2018-01-23T02:36:12.362Z,6.80
2018-01-23T02:38:40.797Z,6.80
2018-01-23T02:41:08.345Z,6.80
2018-01-23T02:43:35.904Z,6.80
2018-01-23T02:46:03.463Z,6.80
2018-01-23T02:48:31.801Z,6.80
2018-01-23T02:50:59.356Z,6.80
2018-01-23T02:53:27.005Z,6.80
2018-01-23T02:55:54.721Z,6.80
2018-01-23T02:58:23.029Z,6.90
2018-01-23T03:00:50.688Z,6.90
2018-01-23T03:03:18.245Z,6.80
2018-01-23T03:05:45.813Z,6.70
2018-01-23T03:08:13.369Z,6.60
2018-01-23T03:10:40.948Z,6.70
2018-01-23T03:13:09.495Z,6.70
2018-01-23T03:15:37.829Z,6.70
2018-01-23T03:18:05.378Z,6.70
2018-01-23T03:20:33.106Z,6.60
2018-01-23T03:23:01.417Z,6.70
2018-01-23T03:25:29.126Z,6.70
2018-01-23T03:27:57.440Z,6.70
2018-01-23T03:30:25.102Z,6.70
2018-01-23T03:32:52.689Z,6.70
2018-01-23T03:35:20.238Z,6.70
2018-01-23T03:37:47.811Z,6.70
2018-01-23T03:40:15.335Z,6.70
2018-01-23T03:42:43.673Z,6.70
2018-01-23T03:45:11.222Z,6.70
2018-01-23T03:47:38.794Z,6.70
2018-01-23T03:50:06.337Z,6.70
2018-01-23T03:52:33.886Z,6.70
2018-01-23T03:55:01.447Z,6.70
2018-01-23T03:57:29.096Z,6.60
2018-01-23T03:59:57.411Z,6.60
2018-01-23T04:02:25.057Z,6.60
2018-01-23T04:04:52.606Z,6.60
2018-01-23T04:07:21.160Z,6.60
2018-01-23T04:09:49.482Z,6.60
2018-01-23T04:12:17.036Z,6.60
2018-01-23T04:14:44.591Z,6.60
2018-01-23T04:17:13.037Z,6.50
2018-01-23T04:19:40.598Z,6.50
2018-01-23T04:22:08.161Z,6.50
2018-01-23T04:24:35.885Z,6.60
2018-01-23T04:27:03.438Z,6.60
2018-01-23T04:29:31.003Z,6.60
2018-01-23T04:31:58.556Z,6.60
2018-01-23T04:34:26.197Z,6.60
2018-01-23T04:36:53.725Z,6.50
2018-01-23T04:39:21.292Z,6.50
2018-01-23T04:41:48.838Z,6.60
2018-01-23T04:44:16.416Z,6.60
2018-01-23T04:46:43.972Z,6.60
2018-01-23T04:49:11.551Z,6.60
2018-01-23T04:51:39.104Z,6.70
2018-01-23T04:54:06.721Z,6.70
2018-01-23T04:56:34.271Z,6.70
2018-01-23T04:59:01.916Z,6.70
2018-01-23T05:01:30.452Z,6.70
2018-01-23T05:03:58.003Z,6.70
2018-01-23T05:06:25.562Z,6.70
2018-01-23T05:08:53.129Z,6.80
2018-01-23T05:11:20.752Z,6.70
2018-01-23T05:13:49.125Z,6.60
2018-01-23T05:16:17.482Z,6.60
2018-01-23T05:18:45.026Z,6.60
2018-01-23T05:21:12.665Z,6.70
2018-01-23T05:23:40.213Z,6.80
2018-01-23T05:26:07.766Z,6.80
2018-01-23T05:28:35.382Z,6.80
2018-01-23T05:31:02.988Z,6.80
2018-01-23T05:33:30.609Z,6.80
2018-01-23T05:35:58.276Z,6.70
2018-01-23T05:38:25.885Z,6.70
2018-01-23T05:40:53.424Z,6.70
2018-01-23T05:43:21.762Z,6.80
2018-01-23T05:45:49.310Z,6.80
2018-01-23T05:48:16.896Z,6.80
2018-01-23T05:50:44.536Z,6.80
2018-01-23T05:53:12.105Z,6.90
2018-01-23T05:55:39.683Z,6.80
2018-01-23T05:58:07.267Z,6.80
2018-01-23T06:00:35.746Z,6.80
2018-01-23T06:03:03.302Z,6.80
2018-01-23T06:05:30.853Z,6.80
2018-01-23T06:07:58.492Z,6.80
2018-01-23T06:10:26.072Z,6.90
2018-01-23T06:12:53.633Z,6.80
2018-01-23T06:15:21.319Z,6.90
2018-01-23T06:17:49.776Z,6.80
2018-01-23T06:20:17.332Z,6.80
2018-01-23T06:22:45.025Z,6.80
2018-01-23T06:25:12.581Z,6.80
2018-01-23T06:27:40.927Z,6.80
2018-01-23T06:30:08.710Z,6.90
2018-01-23T06:32:36.260Z,6.90
2018-01-23T06:35:03.830Z,6.90
2018-01-23T06:37:31.402Z,6.90
2018-01-23T06:39:58.973Z,7.00
2018-01-23T06:42:27.550Z,7.00
2018-01-23T06:44:55.117Z,7.00
2018-01-23T06:47:22.822Z,7.00
2018-01-23T06:49:50.497Z,7.00
2018-01-23T06:52:18.066Z,7.00
2018-01-23T06:54:45.629Z,7.00
2018-01-23T06:57:13.206Z,7.00
2018-01-23T06:59:40.767Z,7.10
2018-01-23T07:02:08.374Z,7.10
2018-01-23T07:04:35.953Z,7.00
2018-01-23T07:07:03.536Z,7.10
2018-01-23T07:09:31.165Z,7.10
2018-01-23T07:11:59.529Z,7.20
2018-01-23T07:14:27.320Z,7.20
2018-01-23T07:16:54.999Z,7.20
2018-01-23T07:19:23.364Z,7.20
2018-01-23T07:21:51.702Z,7.20
2018-01-23T07:24:19.311Z,7.20
2018-01-23T07:26:46.856Z,7.20
2018-01-23T07:29:15.305Z,7.10
2018-01-23T07:31:42.965Z,7.10
2018-01-23T07:34:10.573Z,7.10
2018-01-23T07:36:38.137Z,7.10
2018-01-23T07:39:05.695Z,7.10
2018-01-23T07:41:33.261Z,7.10
2018-01-23T07:44:00.829Z,7.10
2018-01-23T07:46:29.229Z,7.30
2018-01-23T07:48:56.921Z,7.30
2018-01-23T07:51:24.521Z,7.30
2018-01-23T07:53:52.619Z,7.30
2018-01-23T07:56:20.959Z,7.40
2018-01-23T07:58:48.505Z,7.30
2018-01-23T08:01:16.194Z,7.40
2018-01-23T08:03:43.746Z,7.30
2018-01-23T08:06:11.319Z,7.40
2018-01-23T08:08:38.869Z,7.40
2018-01-23T08:11:06.429Z,7.40
2018-01-23T08:13:33.989Z,7.40
2018-01-23T08:16:01.569Z,7.40
2018-01-23T08:18:29.126Z,7.50
2018-01-23T08:20:56.679Z,7.50
2018-01-23T08:23:24.240Z,7.50
2018-01-23T08:25:51.796Z,7.60
2018-01-23T08:28:19.383Z,7.60
2018-01-23T08:30:46.937Z,7.60
2018-01-23T08:33:14.493Z,7.70
2018-01-23T08:35:42.142Z,7.80
2018-01-23T08:38:09.729Z,7.80
2018-01-23T08:40:37.288Z,7.70
2018-01-23T08:43:04.929Z,7.80
2018-01-23T08:45:32.528Z,7.80
2018-01-23T08:48:00.121Z,7.80
2018-01-23T08:50:27.859Z,7.90
2018-01-23T08:52:55.448Z,7.90
2018-01-23T08:55:23.022Z,8.00
2018-01-23T08:57:50.593Z,8.20
2018-01-23T09:00:18.218Z,8.20
2018-01-23T09:02:46.640Z,8.30
2018-01-23T09:05:14.237Z,8.30
2018-01-23T09:07:41.789Z,8.40
2018-01-23T09:10:09.360Z,8.40
2018-01-23T09:12:36.993Z,8.40
2018-01-23T09:15:04.570Z,8.40
2018-01-23T09:17:32.209Z,8.30
2018-01-23T09:19:59.976Z,8.30
2018-01-23T09:22:27.535Z,8.20
2018-01-23T09:24:55.106Z,8.30
2018-01-23T09:27:22.833Z,8.30
2018-01-23T09:29:51.149Z,8.30
2018-01-23T09:32:18.693Z,8.30
2018-01-23T09:34:46.369Z,8.30
2018-01-23T09:37:13.926Z,8.30
2018-01-23T09:39:41.473Z,8.30
2018-01-23T09:42:09.081Z,8.30
2018-01-23T09:44:36.708Z,8.40
2018-01-23T09:47:04.280Z,8.40
2018-01-23T09:49:31.894Z,8.40
2018-01-23T09:51:59.481Z,8.40
2018-01-23T09:54:27.830Z,8.50
2018-01-23T09:56:55.405Z,8.50
2018-01-23T09:59:23.747Z,8.80
2018-01-23T10:01:51.297Z,8.70
2018-01-23T10:04:18.885Z,8.90
2018-01-23T10:06:46.605Z,9.00
2018-01-23T10:09:14.304Z,9.00
2018-01-23T10:11:41.855Z,9.10
2018-01-23T10:14:09.562Z,9.00
2018-01-23T10:16:37.153Z,9.00
2018-01-23T10:19:04.753Z,9.20
2018-01-23T10:21:32.475Z,9.40
2018-01-23T10:24:00.789Z,9.50
2018-01-23T10:26:28.352Z,9.50
2018-01-23T10:28:56.082Z,9.40
2018-01-23T10:31:24.415Z,9.30
2018-01-23T10:33:51.974Z,9.30
2018-01-23T10:36:19.547Z,9.40
2018-01-23T10:38:47.105Z,9.40
2018-01-23T10:41:14.717Z,9.50
2018-01-23T10:43:42.298Z,9.50
2018-01-23T10:46:09.989Z,9.40
2018-01-23T10:48:37.562Z,9.40
2018-01-23T10:51:05.232Z,9.30
2018-01-23T10:53:32.905Z,9.30
2018-01-23T10:56:00.463Z,9.30
2018-01-23T10:58:28.025Z,9.20
2018-01-23T11:01:01.122Z,9.30
2018-01-23T11:03:28.670Z,9.30
2018-01-23T11:05:57.114Z,9.50
2018-01-23T11:08:24.697Z,9.50
2018-01-23T11:10:52.240Z,9.40
2018-01-23T11:13:19.817Z,9.50
2018-01-23T11:15:48.390Z,9.50
2018-01-23T11:18:15.954Z,9.50
2018-01-23T11:20:43.505Z,9.70
2018-01-23T11:23:11.073Z,9.70
2018-01-23T11:25:38.636Z,9.80
2018-01-23T11:28:06.197Z,9.80
2018-01-23T11:30:33.751Z,9.70
2018-01-23T11:33:01.313Z,9.80
2018-01-23T11:35:28.877Z,9.80
2018-01-23T11:37:57.460Z,9.90
2018-01-23T11:40:25.184Z,9.90
2018-01-23T11:42:52.845Z,10.00
2018-01-23T11:45:20.485Z,10.00
2018-01-23T11:47:48.033Z,10.00
2018-01-23T11:50:15.635Z,10.10
2018-01-23T11:52:43.189Z,10.10
2018-01-23T11:55:10.933Z,10.00
2018-01-23T11:57:38.488Z,10.00
2018-01-23T12:00:06.037Z,10.20
2018-01-23T12:02:33.601Z,10.20
2018-01-23T12:05:01.172Z,10.20
2018-01-23T12:07:29.676Z,10.30
2018-01-23T12:09:57.353Z,10.30
2018-01-23T12:12:24.941Z,10.30
2018-01-23T12:14:53.704Z,10.20
2018-01-23T12:17:21.280Z,10.20
2018-01-23T12:19:49.622Z,10.30
2018-01-23T12:22:17.220Z,10.30
2018-01-23T12:24:45.553Z,10.50
2018-01-23T12:27:13.122Z,10.50
2018-01-23T12:29:40.940Z,10.50
2018-01-23T12:32:09.269Z,10.30
2018-01-23T12:34:36.912Z,10.30
2018-01-23T12:37:04.548Z,10.20
2018-01-23T12:39:32.862Z,9.90
2018-01-23T12:42:00.485Z,9.90
2018-01-23T12:44:28.914Z,9.90
2018-01-23T12:46:56.497Z,9.90
2018-01-23T12:49:24.053Z,9.90
2018-01-23T12:51:51.640Z,10.00
2018-01-23T12:54:19.963Z,10.00
2018-01-23T12:56:47.639Z,10.00
2018-01-23T12:59:15.181Z,10.10
2018-01-23T13:01:42.792Z,10.20
2018-01-23T13:04:10.372Z,10.50
2018-01-23T13:06:39.411Z,10.70
2018-01-23T13:09:06.988Z,10.70
2018-01-23T13:11:34.586Z,10.70
2018-01-23T13:14:02.307Z,10.60
2018-01-23T13:16:29.877Z,10.60
2018-01-23T13:18:57.458Z,10.50
2018-01-23T13:21:25.035Z,10.50
2018-01-23T13:23:52.674Z,10.50
2018-01-23T13:26:20.251Z,10.60
2018-01-23T13:28:47.833Z,10.70
2018-01-23T13:31:15.436Z,10.70
2018-01-23T13:33:43.000Z,10.70
2018-01-23T13:36:10.564Z,10.70
2018-01-23T13:38:38.110Z,11.00
2018-01-23T13:41:05.675Z,11.00
2018-01-23T13:43:33.413Z,11.10
2018-01-23T13:46:01.830Z,11.00
2018-01-23T13:48:29.426Z,11.00
2018-01-23T13:50:57.093Z,10.80
2018-01-23T13:53:24.692Z,10.80
2018-01-23T13:55:53.899Z,10.50
2018-01-23T13:58:21.469Z,10.50
2018-01-23T14:00:49.055Z,10.30
2018-01-23T14:03:16.634Z,10.20
2018-01-23T14:05:44.274Z,10.20
2018-01-23T14:08:12.914Z,10.30
2018-01-23T14:10:41.257Z,10.60
2018-01-23T14:13:08.817Z,10.60
2018-01-23T14:15:36.437Z,10.60
2018-01-23T14:18:04.005Z,10.60
2018-01-23T14:20:31.589Z,10.50
2018-01-23T14:22:59.288Z,10.50
2018-01-23T14:25:26.854Z,10.60
2018-01-23T14:27:55.244Z,10.70
2018-01-23T14:30:23.571Z,10.70
2018-01-23T14:32:51.222Z,10.70
2018-01-23T14:35:18.954Z,10.70
2018-01-23T14:37:47.278Z,10.50
2018-01-23T14:40:14.934Z,10.50
2018-01-23T14:42:42.490Z,10.50
2018-01-23T14:45:10.854Z,10.40
2018-01-23T14:47:38.444Z,10.40
2018-01-23T14:50:06.070Z,10.40
2018-01-23T14:52:33.642Z,10.50
2018-01-23T14:55:01.227Z,10.50
2018-01-23T14:57:28.909Z,10.50
2018-01-23T14:59:56.471Z,10.40
2018-01-23T15:02:24.058Z,10.40
2018-01-23T15:04:52.393Z,10.40
2018-01-23T15:07:20.248Z,10.30
2018-01-23T15:09:47.824Z,10.30
2018-01-23T15:12:15.387Z,10.40
2018-01-23T15:14:43.030Z,10.50
2018-01-23T15:17:10.666Z,10.50
2018-01-23T15:19:38.410Z,10.40
2018-01-23T15:22:06.104Z,10.30
2018-01-23T15:24:34.464Z,10.30
2018-01-23T15:27:02.510Z,10.30
2018-01-23T15:29:30.084Z,10.30
2018-01-23T15:31:57.646Z,10.30
2018-01-23T15:34:25.204Z,10.30
2018-01-23T15:36:52.833Z,10.30
2018-01-23T15:39:20.426Z,10.30
2018-01-23T15:41:47.981Z,10.30
2018-01-23T15:44:15.579Z,10.20
2018-01-23T15:46:43.906Z,10.10
2018-01-23T15:49:12.082Z,10.10
2018-01-23T15:51:39.835Z,10.10
2018-01-23T15:54:07.381Z,10.00
2018-01-23T15:56:35.083Z,10.00
2018-01-23T15:59:02.793Z,10.00
2018-01-23T16:01:31.249Z,10.00
2018-01-23T16:03:58.825Z,10.00
2018-01-23T16:06:26.443Z,10.00
2018-01-23T16:08:54.031Z,10.00
2018-01-23T16:11:21.581Z,10.00
2018-01-23T16:13:49.298Z,9.90
2018-01-23T16:16:16.882Z,9.90
2018-01-23T16:18:44.449Z,10.00
2018-01-23T16:21:12.017Z,9.90
2018-01-23T16:23:39.585Z,10.00
2018-01-23T16:26:07.655Z,9.90
2018-01-23T16:28:35.353Z,9.90
2018-01-23T16:31:02.987Z,9.90
2018-01-23T16:33:30.738Z,9.90
2018-01-23T16:35:58.374Z,9.90
2018-01-23T16:38:26.690Z,9.90
2018-01-23T16:40:54.295Z,9.90
2018-01-23T16:43:23.727Z,9.90
2018-01-23T16:45:52.915Z,9.90
2018-01-23T16:48:21.393Z,9.90
2018-01-23T16:50:48.926Z,9.90
2018-01-23T16:53:16.497Z,9.90
2018-01-23T16:55:44.059Z,9.90
2018-01-23T16:58:11.781Z,10.00
2018-01-23T17:00:39.326Z,9.90
2018-01-23T17:03:06.938Z,9.90
2018-01-23T17:05:34.553Z,9.90
2018-01-23T17:08:02.109Z,9.90
2018-01-23T17:10:29.722Z,9.90
2018-01-23T17:12:57.280Z,9.90
2018-01-23T17:15:24.886Z,10.00
2018-01-23T17:17:53.228Z,10.00
2018-01-23T17:20:20.821Z,10.00
2018-01-23T17:22:48.427Z,10.00
2018-01-23T17:25:15.970Z,10.00
2018-01-23T17:27:43.538Z,10.00
2018-01-23T17:30:11.169Z,10.00
2018-01-23T17:32:39.510Z,10.00
2018-01-23T17:35:07.085Z,10.00
2018-01-23T17:37:34.649Z,10.00
2018-01-23T17:40:02.224Z,10.00
2018-01-23T17:42:30.545Z,10.00
2018-01-23T17:44:58.181Z,10.00
2018-01-23T17:47:26.709Z,10.00
2018-01-23T17:49:54.269Z,10.00
2018-01-23T17:52:21.840Z,10.00
2018-01-23T17:54:49.401Z,10.00
2018-01-23T17:57:16.961Z,10.10
2018-01-23T17:59:45.526Z,10.10
2018-01-23T18:02:13.209Z,10.10
2018-01-23T18:04:41.794Z,10.10
2018-01-23T18:07:09.353Z,10.10
2018-01-23T18:09:36.928Z,10.00
2018-01-23T18:12:04.605Z,10.00
2018-01-23T18:14:32.206Z,10.00
2018-01-23T18:16:59.769Z,10.00
2018-01-23T18:19:28.216Z,10.10
2018-01-23T18:21:55.797Z,10.10
2018-01-23T18:24:24.227Z,10.10
2018-01-23T18:26:51.881Z,10.10
2018-01-23T18:29:19.461Z,10.00
2018-01-23T18:31:47.041Z,10.00
2018-01-23T18:34:15.885Z,10.00
2018-01-23T18:36:44.222Z,10.00
2018-01-23T18:39:11.797Z,10.00
2018-01-23T18:41:39.367Z,10.00
2018-01-23T18:44:06.914Z,10.10
2018-01-23T18:46:34.489Z,10.10
2018-01-23T18:49:02.561Z,10.10
2018-01-23T18:51:30.117Z,10.10
2018-01-23T18:53:58.465Z,10.00
2018-01-23T18:56:26.118Z,10.00
2018-01-23T18:58:53.704Z,10.00
2018-01-23T19:01:21.286Z,10.00
2018-01-23T19:03:50.588Z,10.00
2018-01-23T19:06:18.238Z,10.00
2018-01-23T19:08:46.901Z,10.00
2018-01-23T19:11:14.466Z,10.00
2018-01-23T19:13:42.028Z,10.00
2018-01-23T19:16:10.441Z,10.00
2018-01-23T19:18:38.799Z,10.00
2018-01-23T19:21:06.385Z,10.00
2018-01-23T19:23:34.190Z,10.00
2018-01-23T19:26:01.821Z,9.90
2018-01-23T19:28:29.514Z,10.00
2018-01-23T19:30:58.331Z,9.90
2018-01-23T19:33:26.711Z,9.90
2018-01-23T19:35:54.287Z,9.80
2018-01-23T19:38:21.862Z,9.80
2018-01-23T19:40:50.012Z,9.80
2018-01-23T19:43:17.701Z,9.70
2018-01-23T19:45:45.647Z,9.70
2018-01-23T19:48:13.267Z,9.70
2018-01-23T19:50:42.111Z,9.70
2018-01-23T19:53:09.879Z,9.70
2018-01-23T19:55:37.463Z,9.70
2018-01-23T19:58:05.403Z,9.80
2018-01-23T20:00:33.028Z,9.80
2018-01-23T20:03:01.748Z,9.90
2018-01-23T20:05:29.821Z,9.90
2018-01-23T20:07:57.802Z,9.90
2018-01-23T20:10:26.238Z,10.00
2018-01-23T20:12:54.862Z,10.00
2018-01-23T20:15:22.833Z,10.00
2018-01-23T20:17:50.555Z,10.00
2018-01-23T20:20:18.164Z,10.10
2018-01-23T20:22:46.030Z,10.10
2018-01-23T20:25:14.003Z,10.10
2018-01-23T20:27:42.075Z,10.10
2018-01-23T20:30:09.851Z,10.10
2018-01-23T20:32:37.488Z,10.20
2018-01-23T20:35:05.962Z,10.20
2018-01-23T20:37:35.274Z,10.30
2018-01-23T20:40:03.596Z,10.30
2018-01-23T20:42:31.218Z,10.30
2018-01-23T20:44:58.853Z,10.40
2018-01-23T20:47:27.219Z,10.30
2018-01-23T20:49:54.793Z,10.30
2018-01-23T20:52:22.500Z,10.40
2018-01-23T20:54:50.099Z,10.40
2018-01-23T20:57:17.725Z,10.50
2018-01-23T20:59:45.290Z,10.50
2018-01-23T21:02:12.970Z,10.50
2018-01-23T21:04:40.522Z,10.50
2018-01-23T21:07:08.123Z,10.50
2018-01-23T21:09:35.690Z,10.50
2018-01-23T21:12:03.283Z,10.50
2018-01-23T21:14:30.962Z,10.50
2018-01-23T21:16:58.661Z,10.50
2018-01-23T21:19:26.221Z,10.50
2018-01-23T21:21:53.802Z,10.60
2018-01-23T21:24:21.501Z,10.60
2018-01-23T21:26:49.101Z,10.60
2018-01-23T21:29:16.704Z,10.60
2018-01-23T21:31:44.286Z,10.50
2018-01-23T21:34:11.885Z,10.40
2018-01-23T21:36:39.458Z,10.40
2018-01-23T21:39:07.028Z,10.40
2018-01-23T21:41:34.604Z,10.40
2018-01-23T21:44:02.176Z,10.40
2018-01-23T21:46:29.716Z,10.50
2018-01-23T21:48:57.353Z,10.60
2018-01-23T21:51:25.110Z,10.60
2018-01-23T21:53:53.545Z,10.50
2018-01-23T21:56:21.136Z,10.50
2018-01-23T21:58:48.958Z,10.50
2018-01-23T22:01:17.460Z,10.60
2018-01-23T22:03:45.033Z,10.60
2018-01-23T22:06:12.603Z,10.60
2018-01-23T22:08:40.946Z,10.60
2018-01-23T22:11:08.509Z,10.60
2018-01-23T22:13:36.109Z,10.60
2018-01-23T22:16:03.713Z,10.70
2018-01-23T22:18:32.056Z,10.70
2018-01-23T22:20:59.629Z,10.60
2018-01-23T22:23:27.229Z,10.70
2018-01-23T22:25:54.810Z,10.70
2018-01-23T22:28:22.397Z,10.70
2018-01-23T22:30:50.738Z,10.70
2018-01-23T22:33:18.307Z,10.70
2018-01-23T22:35:45.974Z,10.70
2018-01-23T22:38:13.525Z,10.70
2018-01-23T22:40:41.095Z,10.70
2018-01-23T22:43:08.662Z,10.60
2018-01-23T22:45:36.224Z,10.60
2018-01-23T22:48:03.929Z,10.50
2018-01-23T22:50:31.617Z,10.60
2018-01-23T22:52:59.174Z,10.50
2018-01-23T22:55:27.633Z,10.60
2018-01-23T22:57:55.200Z,10.50
2018-01-23T23:00:22.762Z,10.70
2018-01-23T23:02:51.256Z,10.80
2018-01-23T23:05:19.610Z,10.80
2018-01-23T23:07:47.216Z,10.70
2018-01-23T23:10:15.741Z,10.60
2018-01-23T23:12:43.936Z,10.60
2018-01-23T23:15:11.604Z,10.50
2018-01-23T23:17:39.174Z,10.50
2018-01-23T23:20:06.734Z,10.50
2018-01-23T23:22:35.101Z,10.50
2018-01-23T23:25:02.810Z,10.40
2018-01-23T23:27:30.401Z,10.40
2018-01-23T23:29:57.982Z,10.50
2018-01-23T23:32:25.575Z,10.50
2018-01-23T23:34:53.290Z,10.50
2018-01-23T23:37:20.903Z,10.40
2018-01-23T23:39:48.504Z,10.50
2018-01-23T23:42:16.071Z,10.60
2018-01-23T23:44:43.768Z,10.60
2018-01-23T23:47:11.414Z,10.60
2018-01-23T23:49:39.894Z,10.70
2018-01-23T23:52:07.444Z,10.60
2018-01-23T23:54:35.010Z,10.70
2018-01-23T23:57:02.594Z,10.70
2018-01-23T23:59:30.270Z,10.80
